Time;durP1;ratioP1;P1;durP2;ratioP2;P2;SDS_P1;SDS_P2;PMS_P1;PMS_P2;Temp;Humidity;BMP_temperature;BMP_pressure;BME280_temperature;BME280_humidity;BME280_pressure;Samples;Min_cycle;Max_cycle;Signal;HPM_P1;HPM_P2
2022/07/10 00:00:11;;;;;;;;;3.00;3.00;;;;;19.53;44.53;102412.97;5081750;27;45471;-68
2022/07/10 00:02:38;;;;;;;;;3.00;2.00;;;;;19.52;44.47;102419.34;5080411;27;47125;-68
2022/07/10 00:05:04;;;;;;;;;6.00;3.33;;;;;19.49;44.63;102417.69;5080777;27;45335;-68
2022/07/10 00:07:30;;;;;;;;;3.00;1.00;;;;;19.46;45.22;102415.19;5080879;27;45444;-68
2022/07/10 00:09:55;;;;;;;;;4.00;2.00;;;;;19.46;44.89;102415.19;5081117;27;45325;-69
2022/07/10 00:12:20;;;;;;;;;1.33;1.33;;;;;19.44;44.99;102414.41;5079868;27;70857;-69
2022/07/10 00:14:46;;;;;;;;;2.00;2.00;;;;;19.39;45.54;102421.06;5079614;28;72009;-68
2022/07/10 00:17:11;;;;;;;;;1.00;1.00;;;;;19.33;45.78;102420.47;5080362;28;45601;-69
2022/07/10 00:19:36;;;;;;;;;2.33;2.33;;;;;19.30;45.69;102423.34;5080155;27;68868;-69
2022/07/10 00:22:02;;;;;;;;;2.00;2.00;;;;;19.29;45.79;102432.41;5080057;27;57242;-69
2022/07/10 00:24:27;;;;;;;;;3.67;2.00;;;;;19.26;46.03;102421.81;5081213;27;45485;-69
2022/07/10 00:26:53;;;;;;;;;5.00;3.00;;;;;19.25;45.56;102428.16;5080439;28;45421;-69
2022/07/10 00:29:18;;;;;;;;;1.67;1.67;;;;;19.22;45.94;102430.19;5080400;27;67015;-69
2022/07/10 00:31:44;;;;;;;;;2.00;2.00;;;;;19.18;45.90;102427.66;5079970;27;46926;-69
2022/07/10 00:34:09;;;;;;;;;2.00;2.00;;;;;19.18;46.36;102432.22;5082287;27;45617;-69
2022/07/10 00:36:35;;;;;;;;;2.67;2.67;;;;;19.13;47.22;102431.63;5080277;27;45527;-69
2022/07/10 00:39:00;;;;;;;;;3.00;3.00;;;;;19.09;47.26;102424.69;5081309;27;45808;-70
2022/07/10 00:41:25;;;;;;;;;1.33;1.33;;;;;19.05;46.74;102428.53;5080276;27;69336;-70
2022/07/10 00:43:55;;;;;;;;;3.00;3.00;;;;;18.97;48.23;102429.00;5080363;27;46359;-70
2022/07/10 00:46:20;;;;;;;;;2.33;1.67;;;;;18.90;47.72;102428.47;5081061;27;45409;-70
2022/07/10 00:48:47;;;;;;;;;4.00;2.00;;;;;18.86;47.97;102418.78;5079643;27;45555;-70
2022/07/10 00:51:13;;;;;;;;;2.67;2.67;;;;;18.83;47.87;102421.69;5080206;27;46196;-70
2022/07/10 00:53:39;;;;;;;;;2.00;2.00;;;;;18.82;48.97;102415.41;5080387;27;45486;-70
2022/07/10 00:56:06;;;;;;;;;2.00;2.00;;;;;18.78;48.19;102416.56;5080508;27;45390;-70
2022/07/10 00:58:32;;;;;;;;;3.00;3.00;;;;;18.76;49.28;102417.59;5080724;27;45618;-69
2022/07/10 01:00:58;;;;;;;;;3.00;3.00;;;;;18.73;47.94;102418.66;5079263;28;45365;-69
2022/07/10 01:03:23;;;;;;;;;2.67;2.00;;;;;18.72;48.59;102410.66;5078838;27;45665;-69
2022/07/10 01:05:48;;;;;;;;;1.00;1.00;;;;;18.72;49.10;102411.56;5077637;27;62686;-69
2022/07/10 01:08:14;;;;;;;;;1.33;1.33;;;;;18.72;48.39;102413.34;5078661;28;66551;-68
2022/07/10 01:10:39;;;;;;;;;2.00;2.00;;;;;18.72;48.37;102408.84;5078939;27;67443;-68
2022/07/10 01:13:05;;;;;;;;;2.33;2.00;;;;;18.72;48.58;102408.84;5079985;27;60103;-68
2022/07/10 01:15:30;;;;;;;;;2.67;2.67;;;;;18.73;48.89;102415.09;5094535;27;61070;-68
2022/07/10 01:17:56;;;;;;;;;3.00;2.00;;;;;18.65;49.93;102399.38;5080618;27;45468;-68
2022/07/10 01:20:31;;;;;;;;;2.67;2.33;;;;;18.56;49.88;102416.09;5079434;27;74439;-71
2022/07/10 01:22:56;;;;;;;;;1.33;1.33;;;;;18.52;49.76;102407.31;5072998;28;45509;-71
2022/07/10 01:25:21;;;;;;;;;3.00;3.00;;;;;18.49;50.58;102419.13;5078011;27;61653;-71
2022/07/10 01:27:47;;;;;;;;;4.00;2.67;;;;;18.45;51.10;102406.81;5078617;27;70417;-72
2022/07/10 01:30:12;;;;;;;;;2.00;1.33;;;;;18.41;49.47;102404.38;5078840;27;66209;-72
2022/07/10 01:32:40;;;;;;;;;3.00;2.33;;;;;18.42;50.41;102403.41;5078766;27;66072;-73
2022/07/10 01:35:06;;;;;;;;;2.00;2.00;;;;;18.40;50.05;102413.44;5079869;27;45468;-72
2022/07/10 01:37:31;;;;;;;;;3.33;3.00;;;;;18.39;49.71;102417.06;5079672;27;45390;-72
2022/07/10 01:39:57;;;;;;;;;2.00;2.00;;;;;18.39;50.29;102415.25;5079426;27;56322;-72
2022/07/10 01:42:22;;;;;;;;;2.67;2.67;;;;;18.34;50.67;102417.31;5078617;27;72022;-72
2022/07/10 01:44:47;;;;;;;;;4.33;2.67;;;;;18.24;51.29;102414.31;5078934;27;67870;-73
2022/07/10 01:47:13;;;;;;;;;2.00;2.00;;;;;18.08;51.84;102408.94;5078955;27;68783;-72
2022/07/10 01:49:38;;;;;;;;;3.00;3.00;;;;;17.97;51.88;102414.91;5078108;27;69452;-72
2022/07/10 01:52:04;;;;;;;;;2.33;2.33;;;;;17.94;51.48;102414.19;5078826;27;70554;-72
2022/07/10 01:54:29;;;;;;;;;1.33;1.33;;;;;17.91;51.01;102415.19;5079465;28;45311;-73
2022/07/10 01:56:54;;;;;;;;;4.00;2.33;;;;;17.87;52.79;102419.03;5078974;27;69206;-73
2022/07/10 01:59:20;;;;;;;;;1.33;1.33;;;;;17.80;52.87;102417.63;5078738;27;71576;-72
2022/07/10 02:01:45;;;;;;;;;1.33;1.33;;;;;17.73;52.80;102418.91;5079487;27;45281;-72
2022/07/10 02:06:54;;;;;;;;;2.00;2.00;;;;;17.64;53.38;102426.56;5080125;28;45425;-72
2022/07/10 02:09:20;;;;;;;;;2.00;2.00;;;;;17.58;52.54;102432.25;5078584;27;72017;-72
2022/07/10 02:11:45;;;;;;;;;1.67;1.67;;;;;17.52;53.39;102425.41;5079013;27;45472;-71
2022/07/10 02:14:10;;;;;;;;;5.33;2.33;;;;;17.49;52.80;102424.69;5078070;28;68214;-71
2022/07/10 02:16:36;;;;;;;;;1.00;1.00;;;;;17.48;52.86;102422.94;5078117;28;70030;-72
2022/07/10 02:19:02;;;;;;;;;2.67;2.00;;;;;17.47;53.07;102427.47;5078451;28;65938;-71
2022/07/10 02:21:27;;;;;;;;;3.33;3.00;;;;;17.42;53.32;102425.97;5079283;27;45479;-71
2022/07/10 02:23:52;;;;;;;;;3.00;2.00;;;;;17.39;53.46;102416.25;5078861;27;45401;-72
2022/07/10 02:26:18;;;;;;;;;3.00;3.00;;;;;17.36;53.28;102408.31;5078806;27;65463;-74
2022/07/10 02:28:43;;;;;;;;;3.00;2.67;;;;;17.35;52.90;102407.47;5078947;27;46058;-71
2022/07/10 02:31:08;;;;;;;;;3.67;3.33;;;;;17.31;53.92;102411.28;5077673;27;69721;-71
2022/07/10 02:33:34;;;;;;;;;3.00;3.00;;;;;17.24;53.72;102403.63;5078816;27;45392;-71
2022/07/10 02:35:59;;;;;;;;;3.00;2.00;;;;;17.23;53.76;102402.72;5079047;27;45533;-72
2022/07/10 02:38:24;;;;;;;;;1.67;1.67;;;;;17.22;53.30;102397.44;5079149;27;46082;-71
2022/07/10 02:40:50;;;;;;;;;3.00;3.00;;;;;17.21;53.08;102396.59;5077941;27;45492;-72
2022/07/10 02:43:15;;;;;;;;;3.00;1.00;;;;;17.19;53.59;102398.47;5078701;27;45858;-71
2022/07/10 02:45:41;;;;;;;;;2.00;2.00;;;;;17.16;54.74;102393.28;5078964;27;45333;-71
2022/07/10 02:48:06;;;;;;;;;3.33;2.67;;;;;17.15;54.07;102388.84;5077989;27;71387;-71
2022/07/10 02:50:31;;;;;;;;;1.33;1.33;;;;;17.12;53.82;102392.56;5078673;27;45375;-71
2022/07/10 02:52:57;;;;;;;;;2.33;2.33;;;;;17.14;53.64;102395.16;5077866;27;65072;-71
2022/07/10 02:55:22;;;;;;;;;4.67;4.00;;;;;17.14;54.33;102398.72;5077941;27;54675;-71
2022/07/10 02:57:47;;;;;;;;;3.33;2.00;;;;;17.12;54.57;102391.69;5078098;27;58691;-71
2022/07/10 03:00:13;;;;;;;;;4.00;2.33;;;;;17.11;54.57;102389.94;5078803;27;45452;-71
2022/07/10 03:02:38;;;;;;;;;2.67;2.00;;;;;17.08;54.12;102393.66;5077855;27;45475;-71
2022/07/10 03:05:04;;;;;;;;;2.33;2.33;;;;;17.05;54.50;102393.81;5078197;27;59991;-72
2022/07/10 03:07:29;;;;;;;;;3.67;2.33;;;;;17.02;54.44;102391.28;5077083;27;45450;-72
2022/07/10 03:09:55;;;;;;;;;2.33;2.00;;;;;17.02;54.32;102391.28;5078413;27;47885;-72
2022/07/10 03:12:20;;;;;;;;;1.00;1.00;;;;;17.02;54.92;102396.66;5077728;27;59320;-71
2022/07/10 03:14:45;;;;;;;;;2.00;2.00;;;;;16.99;54.73;102394.16;5078022;28;55315;-71
2022/07/10 03:17:11;;;;;;;;;4.33;2.67;;;;;16.95;54.35;102387.22;5077824;28;61601;-71
2022/07/10 03:19:36;;;;;;;;;3.00;3.00;;;;;16.95;53.96;102395.28;5078006;28;51924;-71
2022/07/10 03:22:01;;;;;;;;;2.00;1.00;;;;;16.99;54.31;102394.16;5077610;28;59682;-71
2022/07/10 03:24:27;;;;;;;;;2.00;2.00;;;;;17.01;54.28;102389.56;5078396;27;45497;-70
2022/07/10 03:26:52;;;;;;;;;3.00;3.00;;;;;17.01;53.85;102398.50;5077267;27;46715;-71
2022/07/10 03:29:17;;;;;;;;;3.33;3.33;;;;;17.02;54.01;102388.59;5077490;27;68329;-71
2022/07/10 03:31:43;;;;;;;;;3.00;3.00;;;;;17.02;54.05;102385.91;5077908;27;45487;-72
2022/07/10 03:34:08;;;;;;;;;4.00;3.00;;;;;17.01;54.87;102379.69;5077417;27;67442;-71
2022/07/10 03:36:33;;;;;;;;;3.00;3.00;;;;;16.97;55.32;102380.81;5077243;27;63419;-71
2022/07/10 03:38:59;;;;;;;;;4.00;3.33;;;;;16.91;54.97;102383.81;5077618;27;70291;-71
2022/07/10 03:41:24;;;;;;;;;4.00;3.00;;;;;16.92;54.47;102376.59;5077366;27;66731;-71
2022/07/10 03:43:49;;;;;;;;;2.00;2.00;;;;;16.94;54.27;102378.25;5076895;27;63627;-72
2022/07/10 03:46:15;;;;;;;;;4.00;1.67;;;;;16.96;54.83;102376.38;5078221;27;46202;-71
2022/07/10 03:48:40;;;;;;;;;3.67;3.67;;;;;16.96;54.81;102372.78;5077020;27;67603;-71
2022/07/10 03:51:06;;;;;;;;;3.00;3.00;;;;;16.90;54.51;102373.09;5077148;27;62757;-71
2022/07/10 03:53:31;;;;;;;;;4.33;3.00;;;;;16.83;55.64;102372.53;5076824;27;64341;-72
2022/07/10 03:55:56;;;;;;;;;5.00;2.00;;;;;16.76;55.00;102380.03;5077122;27;70641;-71
2022/07/10 03:58:21;;;;;;;;;3.00;3.00;;;;;16.74;54.90;102381.06;5077094;27;60011;-72
2022/07/10 04:00:47;;;;;;;;;4.33;3.00;;;;;16.69;55.45;102387.53;5076148;27;67091;-72
2022/07/10 04:03:13;;;;;;;;;4.33;2.00;;;;;16.68;55.78;102383.13;5076982;27;65417;-72
2022/07/10 04:05:39;;;;;;;;;3.67;3.33;;;;;16.68;54.70;102376.88;5077356;28;46183;-74
2022/07/10 04:08:04;;;;;;;;;2.00;2.00;;;;;16.69;55.00;102382.16;5078327;27;45422;-70
2022/07/10 04:10:33;;;;;;;;;3.67;3.67;;;;;16.68;55.72;102384.94;5077265;27;45286;-71
2022/07/10 04:12:59;;;;;;;;;4.33;3.00;;;;;16.58;56.07;102392.59;5077884;27;45555;-73
2022/07/10 04:15:25;;;;;;;;;3.00;3.00;;;;;16.55;55.82;102392.75;5077813;27;46350;-73
2022/07/10 04:17:51;;;;;;;;;4.00;3.00;;;;;16.51;56.91;102391.16;5076499;27;69586;-71
2022/07/10 04:20:17;;;;;;;;;2.00;2.00;;;;;16.51;56.99;102388.47;5075806;28;45539;-71
2022/07/10 04:22:42;;;;;;;;;3.00;3.00;;;;;16.53;56.15;102392.84;5076804;28;45381;-71
2022/07/10 04:25:08;;;;;;;;;3.67;3.00;;;;;16.54;56.46;102391.00;5076223;28;45933;-71
2022/07/10 04:27:34;;;;;;;;;2.33;2.33;;;;;16.54;55.45;102386.53;5077421;27;45405;-72
2022/07/10 04:30:00;;;;;;;;;4.00;3.00;;;;;16.58;55.32;102384.53;5075750;28;67283;-71
2022/07/10 04:32:25;;;;;;;;;2.00;2.00;;;;;16.60;56.08;102385.31;5077421;28;45645;-71
2022/07/10 04:34:51;;;;;;;;;3.00;1.00;;;;;16.64;56.10;102388.75;5076749;27;45987;-71
2022/07/10 04:37:16;;;;;;;;;3.67;2.33;;;;;16.69;56.02;102387.53;5076987;27;48022;-71
2022/07/10 04:39:41;;;;;;;;;3.33;3.33;;;;;16.76;55.52;102398.84;5078404;27;45455;-71
2022/07/10 04:42:08;;;;;;;;;3.33;3.00;;;;;16.76;55.96;102385.41;5080101;27;45584;-71
2022/07/10 04:44:34;;;;;;;;;2.00;2.00;;;;;16.76;55.76;102390.78;5080439;27;45523;-72
2022/07/10 04:46:59;;;;;;;;;2.00;2.00;;;;;16.79;56.04;102387.97;5081078;27;45484;-71
2022/07/10 04:49:25;;;;;;;;;3.00;3.00;;;;;16.79;55.76;102387.97;5080256;27;45720;-71
2022/07/10 04:51:51;;;;;;;;;3.00;2.00;;;;;16.78;55.36;102386.22;5080571;27;45372;-72
2022/07/10 04:54:16;;;;;;;;;2.33;2.33;;;;;16.76;55.38;102381.88;5080610;27;46306;-72
2022/07/10 04:56:41;;;;;;;;;6.33;3.33;;;;;16.74;55.68;102383.75;5079148;27;71992;-71
2022/07/10 04:59:07;;;;;;;;;3.00;3.00;;;;;16.72;55.30;102385.66;5080605;27;45354;-71
2022/07/10 05:01:33;;;;;;;;;3.00;3.00;;;;;16.73;55.01;102390.94;5079990;27;45818;-71
2022/07/10 05:03:58;;;;;;;;;2.50;2.50;;;;;16.73;55.94;102379.34;5080619;27;45583;-71
2022/07/10 05:06:23;;;;;;;;;5.67;3.33;;;;;16.68;55.95;102385.81;5080155;27;45671;-71
2022/07/10 05:08:49;;;;;;;;;3.00;3.00;;;;;16.66;55.59;102392.19;5080129;27;58328;-72
2022/07/10 05:11:14;;;;;;;;;4.00;4.00;;;;;16.68;56.42;102390.31;5080828;27;45376;-72
2022/07/10 05:13:40;;;;;;;;;6.00;3.00;;;;;16.73;55.06;102395.47;5079482;28;57822;-72
2022/07/10 05:16:05;;;;;;;;;3.00;3.00;;;;;16.80;55.27;102388.81;5080948;27;45422;-72
2022/07/10 05:18:31;;;;;;;;;3.00;2.00;;;;;16.83;55.38;102388.66;5079222;27;45236;-71
2022/07/10 05:20:56;;;;;;;;;5.33;3.33;;;;;16.86;55.70;102394.75;5079125;27;69317;-72
2022/07/10 05:23:22;;;;;;;;;3.33;3.33;;;;;16.86;55.53;102401.94;5079604;27;71953;-73
2022/07/10 05:25:47;;;;;;;;;4.33;3.00;;;;;16.87;55.44;102401.88;5080263;27;46541;-71
2022/07/10 05:28:14;;;;;;;;;2.67;2.67;;;;;16.92;55.00;102401.66;5080341;27;45433;-71
2022/07/10 05:30:40;;;;;;;;;6.67;4.00;;;;;16.96;54.46;102395.19;5078724;27;45554;-72
2022/07/10 05:33:05;;;;;;;;;4.00;4.00;;;;;17.03;54.94;102404.66;5079994;27;45344;-72
2022/07/10 05:35:30;;;;;;;;;3.00;3.00;;;;;17.12;54.54;102410.53;5078684;27;73047;-72
2022/07/10 05:37:56;;;;;;;;;4.33;2.67;;;;;17.16;54.66;102406.72;5079945;27;45255;-73
2022/07/10 05:40:21;;;;;;;;;3.67;3.67;;;;;17.18;54.65;102410.16;5079074;27;64770;-72
2022/07/10 05:42:47;;;;;;;;;4.00;4.00;;;;;17.17;54.12;102405.78;5074682;27;46070;-72
2022/07/10 05:45:12;;;;;;;;;3.00;2.00;;;;;17.19;53.92;102409.22;5077378;28;45291;-72
2022/07/10 05:47:37;;;;;;;;;3.00;3.00;;;;;17.24;54.13;102411.69;5079039;27;47038;-68
2022/07/10 05:50:04;;;;;;;;;5.33;3.00;;;;;17.26;53.64;102405.28;5077513;27;67330;-72
2022/07/10 05:52:29;;;;;;;;;2.33;2.33;;;;;17.27;53.83;102407.00;5079377;27;46150;-72
2022/07/10 05:54:58;;;;;;;;;3.00;3.00;;;;;17.29;54.18;102405.09;5080115;27;45485;-72
2022/07/10 05:57:23;;;;;;;;;2.33;2.33;;;;;17.35;53.52;102412.84;5078891;27;59211;-71
2022/07/10 05:59:49;;;;;;;;;5.67;3.00;;;;;17.39;53.68;102413.56;5081178;27;45480;-73
2022/07/10 06:02:15;;;;;;;;;4.00;4.00;;;;;17.40;54.16;102414.41;5077967;28;47144;-72
2022/07/10 06:04:40;;;;;;;;;2.00;2.00;;;;;17.44;53.54;102416.88;5079461;27;45800;-71
2022/07/10 06:07:05;;;;;;;;;3.00;3.00;;;;;17.53;53.43;102412.81;5079672;27;46333;-71
2022/07/10 06:09:31;;;;;;;;;2.33;2.33;;;;;17.58;53.06;102404.50;5078008;28;57431;-71
2022/07/10 06:11:56;;;;;;;;;2.33;2.33;;;;;17.62;53.23;102401.53;5079360;27;47214;-72
2022/07/10 06:14:21;;;;;;;;;3.00;2.00;;;;;17.64;53.46;102413.09;5078763;27;72132;-71
2022/07/10 06:16:47;;;;;;;;;5.00;3.67;;;;;17.64;53.22;102399.66;5079348;28;45264;-72
2022/07/10 06:19:12;;;;;;;;;0.00;0.00;;;;;17.67;52.92;102406.69;5077988;27;70821;-71
2022/07/10 06:21:37;;;;;;;;;3.33;3.33;;;;;17.74;52.74;102396.44;5077571;28;72528;-72
2022/07/10 06:24:03;;;;;;;;;3.67;2.00;;;;;17.82;53.02;102399.56;5078639;27;66669;-72
2022/07/10 06:26:28;;;;;;;;;4.00;4.00;;;;;17.87;52.70;102397.50;5079318;28;45481;-72
2022/07/10 06:28:54;;;;;;;;;2.67;2.67;;;;;17.92;52.49;102399.94;5079809;27;45421;-71
2022/07/10 06:31:19;;;;;;;;;6.00;4.00;;;;;18.01;52.75;102400.31;5076967;28;70549;-72
2022/07/10 06:33:44;;;;;;;;;2.67;2.00;;;;;18.12;52.16;102396.13;5077981;28;67372;-72
2022/07/10 06:36:12;;;;;;;;;2.33;2.33;;;;;18.21;51.85;102397.44;5079859;27;45206;-73
2022/07/10 06:38:37;;;;;;;;;1.67;1.00;;;;;18.27;51.64;102394.41;5078762;28;45512;-72
2022/07/10 06:41:03;;;;;;;;;3.00;3.00;;;;;18.32;51.53;102397.72;5078152;27;46830;-71
2022/07/10 06:43:28;;;;;;;;;5.33;4.00;;;;;18.43;51.64;102387.16;5078524;27;45425;-72
2022/07/10 06:45:53;;;;;;;;;2.67;2.67;;;;;18.62;51.14;102396.88;5076394;27;63350;-72
2022/07/10 06:48:20;;;;;;;;;4.00;3.67;;;;;18.77;50.34;102397.78;5076161;28;45424;-72
2022/07/10 06:50:45;;;;;;;;;4.00;3.00;;;;;18.91;49.84;102397.00;5077245;27;46288;-69
2022/07/10 06:53:10;;;;;;;;;2.00;2.00;;;;;19.04;49.11;102395.28;5078709;27;45435;-70
2022/07/10 06:55:36;;;;;;;;;5.00;4.00;;;;;19.16;48.63;102391.84;5076748;27;67790;-70
2022/07/10 06:58:02;;;;;;;;;3.00;2.00;;;;;19.34;48.59;102402.44;5077785;27;67431;-71
2022/07/10 07:00:27;;;;;;;;;2.67;2.00;;;;;19.50;48.50;102403.25;5070784;28;46944;-71
2022/07/10 07:02:53;;;;;;;;;2.33;2.33;;;;;19.62;46.41;102398.91;5076860;27;45252;-70
2022/07/10 07:05:18;;;;;;;;;4.00;4.00;;;;;19.71;46.10;102392.06;5076782;27;45474;-69
2022/07/10 07:07:43;;;;;;;;;3.00;2.00;;;;;19.81;45.77;102397.72;5069865;27;57402;-69
2022/07/10 07:10:10;;;;;;;;;2.33;1.00;;;;;19.94;45.41;102406.78;5076912;28;72697;-72
2022/07/10 07:12:36;;;;;;;;;3.00;3.00;;;;;19.99;44.83;102410.06;5077635;28;45396;-70
2022/07/10 07:15:01;;;;;;;;;1.67;1.67;;;;;20.07;45.01;102406.00;5078035;27;45367;-73
2022/07/10 07:17:33;;;;;;;;;2.00;2.00;;;;;20.23;44.02;102395.91;5076704;27;47208;-73
2022/07/10 07:25:30;;;;;;;;;1.33;1.33;;;;;20.93;42.56;102397.56;5075631;28;45417;-73
2022/07/10 07:27:55;;;;;;;;;2.67;1.67;;;;;21.24;42.89;102387.31;5092102;27;45421;-72
2022/07/10 07:30:21;;;;;;;;;4.00;2.00;;;;;21.57;41.32;102391.31;5077426;27;45379;-71
2022/07/10 07:32:47;;;;;;;;;3.00;3.00;;;;;21.83;40.31;102387.72;5076338;27;68040;-73
2022/07/10 07:35:15;;;;;;;;;3.00;3.00;;;;;22.09;39.88;102383.06;5078281;27;45447;-73
2022/07/10 07:37:45;;;;;;;;;2.00;2.00;;;;;22.36;39.25;102379.28;5082750;27;45760;-70
2022/07/10 07:40:16;;;;;;;;;2.00;2.00;;;;;22.60;40.16;102368.44;5074974;28;45438;-70
2022/07/10 07:42:42;;;;;;;;;1.67;1.67;;;;;23.03;39.49;102366.94;5077224;27;46830;-73
2022/07/10 07:45:08;;;;;;;;;2.00;2.00;;;;;23.49;38.31;102363.28;5078465;27;45410;-73
2022/07/10 07:47:47;;;;;;;;;2.00;1.00;;;;;24.02;37.31;102359.06;5075619;27;45535;-73
2022/07/10 07:50:14;;;;;;;;;3.00;2.00;;;;;24.56;36.95;102355.41;5075952;27;45693;-70
2022/07/10 07:52:39;;;;;;;;;1.33;1.33;;;;;25.03;36.39;102359.59;5076670;27;45743;-72
2022/07/10 07:55:05;;;;;;;;;0.00;0.00;;;;;25.37;34.93;102367.53;5072468;27;46512;-71
2022/07/10 07:57:30;;;;;;;;;1.33;1.33;;;;;25.88;34.07;102361.13;5077596;27;45299;-70
2022/07/10 07:59:56;;;;;;;;;1.50;1.50;;;;;26.42;33.45;102364.34;5076996;28;70887;-69
2022/07/10 08:02:22;;;;;;;;;1.00;1.00;;;;;26.74;31.28;102359.63;5075693;27;71881;-69
2022/07/10 08:04:47;;;;;;;;;0.00;0.00;;;;;27.03;30.46;102370.47;5076709;27;45351;-69
2022/07/10 08:07:12;;;;;;;;;1.00;1.00;;;;;27.40;31.12;102363.34;5077719;27;45465;-69
2022/07/10 08:09:38;;;;;;;;;1.00;1.00;;;;;27.83;29.14;102364.53;5075030;28;45354;-69
2022/07/10 08:12:04;;;;;;;;;3.00;1.75;;;;;28.17;29.67;102366.66;5072511;27;69039;-69
2022/07/10 08:14:29;;;;;;;;;0.00;0.00;;;;;28.68;28.52;102364.22;5078577;28;45712;-70
2022/07/10 08:16:54;;;;;;;;;1.25;1.25;;;;;29.03;27.44;102367.91;5080842;28;45494;-70
2022/07/10 08:19:20;;;;;;;;;0.50;0.50;;;;;29.33;27.44;102362.97;5079304;28;68067;-70
2022/07/10 08:21:45;;;;;;;;;0.00;0.00;;;;;29.78;27.78;102357.31;5080229;28;45345;-70
2022/07/10 08:24:10;;;;;;;;;0.50;0.50;;;;;30.17;26.95;102359.47;5078732;28;67609;-70
2022/07/10 08:26:36;;;;;;;;;1.25;1.25;;;;;30.51;25.58;102355.75;5072649;27;70090;-70
2022/07/10 08:29:01;;;;;;;;;1.00;0.00;;;;;30.79;24.90;102358.13;5075944;27;73176;-68
2022/07/10 08:31:26;;;;;;;;;0.00;0.00;;;;;31.16;24.35;102359.47;5075681;27;45541;-72
2022/07/10 08:33:52;;;;;;;;;0.25;0.25;;;;;31.32;23.39;102364.03;5073561;27;45751;-72
2022/07/10 08:36:18;;;;;;;;;0.00;0.00;;;;;31.06;22.97;102358.81;5071389;27;45631;-72
2022/07/10 08:38:43;;;;;;;;;0.67;0.67;;;;;31.27;23.45;102366.47;5074658;28;45559;-71
2022/07/10 08:41:10;;;;;;;;;0.00;0.00;;;;;31.72;23.88;102359.44;5067733;27;45495;-71
2022/07/10 08:43:35;;;;;;;;;0.00;0.00;;;;;32.13;21.83;102353.66;5080189;27;51218;-68
2022/07/10 08:46:01;;;;;;;;;0.75;0.75;;;;;32.32;23.49;102357.84;5078626;27;64287;-65
2022/07/10 08:48:27;;;;;;;;;0.67;0.67;;;;;32.59;22.56;102344.53;5092822;27;46239;-66
2022/07/10 08:50:54;;;;;;;;;4.00;2.75;;;;;32.76;21.51;102339.75;5078181;27;56736;-66
2022/07/10 08:53:28;;;;;;;;;0.50;0.50;;;;;33.17;21.86;102337.56;5077549;27;45457;-65
2022/07/10 08:55:53;;;;;;;;;0.00;0.00;;;;;33.54;21.23;102342.13;5079435;27;45476;-65
2022/07/10 08:58:19;;;;;;;;;0.25;0.25;;;;;33.96;21.37;102340.53;5079020;27;69235;-70
2022/07/10 09:00:45;;;;;;;;;0.00;0.00;;;;;34.11;19.85;102337.69;5078808;27;56061;-66
2022/07/10 09:03:10;;;;;;;;;3.00;2.00;;;;;34.15;19.53;102326.28;5077230;27;61694;-65
2022/07/10 09:05:36;;;;;;;;;0.75;0.75;;;;;34.38;19.87;102323.31;5078843;27;56500;-69
2022/07/10 09:08:01;;;;;;;;;0.00;0.00;;;;;34.49;20.35;102321.94;5079317;28;45490;-70
2022/07/10 09:10:27;;;;;;;;;3.50;2.00;;;;;34.73;19.36;102326.13;5078287;27;45429;-63
2022/07/10 09:12:55;;;;;;;;;0.75;0.75;;;;;34.86;20.81;102322.63;5079101;27;45397;-48
2022/07/10 09:15:25;;;;;;;;;0.50;0.50;;;;;35.04;20.11;102316.56;5079600;28;45434;-48
2022/07/10 09:18:00;;;;;;;;;2.00;1.00;;;;;35.55;18.78;102312.56;5076443;27;46274;-48
2022/07/10 09:20:35;;;;;;;;;1.00;1.00;;;;;35.80;19.31;102321.16;5075232;28;45409;-48
2022/07/10 09:23:21;;;;;;;;;1.00;1.00;;;;;35.90;18.58;102318.00;5075818;27;45957;-47
2022/07/10 09:25:51;;;;;;;;;0.25;0.25;;;;;35.76;18.42;102315.19;5093594;27;45743;-50
2022/07/10 09:28:21;;;;;;;;;1.75;1.75;;;;;35.86;19.09;102322.25;5078675;28;45635;-50
2022/07/10 09:30:47;;;;;;;;;0.00;0.00;;;;;35.83;18.85;102315.19;5079147;27;45416;-49
2022/07/10 09:33:35;;;;;;;;;1.00;1.00;;;;;36.00;17.85;102326.75;5077773;27;45724;-58
2022/07/10 09:36:14;;;;;;;;;0.75;0.75;;;;;36.10;18.04;102318.91;5077829;27;45823;-54
2022/07/10 09:38:39;;;;;;;;;1.00;1.00;;;;;36.15;17.59;102317.41;5078001;28;46265;-48
2022/07/10 09:41:19;;;;;;;;;1.00;1.00;;;;;36.01;18.45;102319.28;5075784;27;45365;-51
2022/07/10 09:43:45;;;;;;;;;2.00;2.00;;;;;36.05;18.80;102315.03;5076818;27;45542;-48
2022/07/10 09:46:11;;;;;;;;;2.00;2.00;;;;;36.28;18.93;102311.03;5076528;27;45333;-50
2022/07/10 09:48:36;;;;;;;;;0.25;0.25;;;;;36.69;17.95;102309.97;5077183;27;46636;-53
2022/07/10 09:51:02;;;;;;;;;0.75;0.25;;;;;37.07;18.17;102299.00;5079372;27;71646;-54
2022/07/10 09:53:28;;;;;;;;;0.75;0.75;;;;;37.58;18.02;102318.63;5077717;27;45408;-52
2022/07/10 09:55:55;;;;;;;;;1.00;1.00;;;;;37.33;16.26;102318.56;5078028;27;45384;-52
2022/07/10 09:58:26;;;;;;;;;0.00;0.00;;;;;37.31;16.86;102313.22;5059109;28;46306;-54
2022/07/10 10:00:53;;;;;;;;;3.00;2.00;;;;;37.63;17.01;102312.44;5074052;28;45505;-54
2022/07/10 10:03:20;;;;;;;;;0.67;0.67;;;;;38.00;17.25;102313.47;5076088;28;45412;-53
2022/07/10 10:05:53;;;;;;;;;0.00;0.00;;;;;38.07;16.13;102305.13;5073598;28;60263;-52
2022/07/10 10:08:49;;;;;;;;;1.50;1.50;;;;;37.91;15.46;102312.06;5075831;28;45330;-53
2022/07/10 10:11:15;;;;;;;;;1.25;1.25;;;;;38.14;15.89;102310.63;5075110;27;45848;-52
2022/07/10 10:13:41;;;;;;;;;1.75;1.75;;;;;38.35;15.39;102324.13;5075297;28;45532;-48
2022/07/10 10:16:08;;;;;;;;;0.00;0.00;;;;;37.80;16.33;102307.25;5075649;28;45576;-61
2022/07/10 10:18:34;;;;;;;;;0.00;0.00;;;;;37.33;16.14;102307.47;5079576;27;47296;-61
2022/07/10 10:21:01;;;;;;;;;1.00;1.00;;;;;37.31;16.40;102299.34;5076893;28;45446;-61
2022/07/10 10:23:27;;;;;;;;;1.00;1.00;;;;;37.66;15.71;102298.09;5078948;27;63509;-61
2022/07/10 10:25:56;;;;;;;;;1.50;0.00;;;;;37.87;16.11;102289.47;5078940;28;45519;-64
2022/07/10 10:28:23;;;;;;;;;0.25;0.25;;;;;37.97;15.73;102299.22;5080560;27;46177;-64
2022/07/10 10:30:50;;;;;;;;;0.00;0.00;;;;;38.19;16.32;102281.06;5078635;27;45438;-65
2022/07/10 10:33:43;;;;;;;;;1.00;1.00;;;;;38.53;15.14;102287.19;5079477;28;45618;-64
2022/07/10 10:36:13;;;;;;;;;1.00;0.50;;;;;38.14;15.54;102282.84;5079306;27;45623;-64
2022/07/10 10:38:59;;;;;;;;;1.25;1.25;;;;;38.09;15.66;102288.22;5076045;28;45398;-64
2022/07/10 10:41:28;;;;;;;;;0.00;0.00;;;;;37.67;15.86;102284.00;5079830;28;45372;-64
2022/07/10 10:44:20;;;;;;;;;0.00;0.00;;;;;37.44;16.22;102279.00;5080425;27;45396;-63
2022/07/10 10:46:56;;;;;;;;;1.00;1.00;;;;;37.30;15.98;102274.59;5077116;28;45235;-63
2022/07/10 10:49:25;;;;;;;;;1.00;1.00;;;;;37.23;16.62;102277.38;5080107;27;46167;-63
2022/07/10 10:51:57;;;;;;;;;1.75;0.25;;;;;37.10;16.82;102266.38;5079494;27;45378;-63
2022/07/10 10:54:23;;;;;;;;;0.00;0.00;;;;;37.26;16.65;102265.84;5080155;27;45424;-62
2022/07/10 10:57:16;;;;;;;;;1.00;1.00;;;;;37.87;15.96;102260.84;5078201;28;69918;-64
2022/07/10 10:59:49;;;;;;;;;8.33;8.33;;;;;38.34;16.32;102257.69;5080260;28;46918;-64
2022/07/10 11:02:23;;;;;;;;;3.00;3.00;;;;;38.55;15.17;102257.25;5079940;27;45461;-62
2022/07/10 11:04:52;;;;;;;;;3.00;3.00;;;;;38.02;15.54;102253.03;5077769;28;45461;-63
2022/07/10 11:07:54;;;;;;;;;1.00;1.00;;;;;37.75;16.12;102255.13;5078440;28;45814;-61
2022/07/10 11:10:36;;;;;;;;;4.00;4.00;;;;;38.01;16.01;102250.50;5079648;27;45359;-61
2022/07/10 11:13:12;;;;;;;;;11.00;10.33;;;;;38.23;16.00;102242.59;5079572;27;45383;-63
2022/07/10 11:15:43;;;;;;;;;5.33;5.33;;;;;38.26;15.76;102242.16;5071981;27;45277;-62
2022/07/10 11:18:11;;;;;;;;;6.00;6.00;;;;;38.09;16.05;102239.09;5067823;28;45428;-61
2022/07/10 11:20:58;;;;;;;;;5.33;5.33;;;;;37.94;16.01;102233.91;5078854;27;46440;-63
2022/07/10 11:23:47;;;;;;;;;1.67;1.67;;;;;37.70;16.21;102235.53;5078657;27;45552;-63
2022/07/10 11:26:25;;;;;;;;;2.00;1.00;;;;;37.47;16.48;102234.22;5077653;28;45533;-63
2022/07/10 11:29:09;;;;;;;;;5.00;5.00;;;;;37.51;16.67;102220.72;5078677;28;45560;-63
2022/07/10 11:31:37;;;;;;;;;5.67;5.67;;;;;37.48;16.45;102233.09;5071667;28;47290;-63